Latest Weather Observations for Hobart Airport

IDT60801

Issued at 11:02 am EDT Saturday 7 March 2015 (issued every 30 minutes, with the page automatically refreshed every 10 minutes)

About weather observations | Map of weather stations | Latest weather observations for TAS | Other Formats
Station Details ID: 094008 Name: HOBART AIRPORT Lat: -42.83 Lon: 147.50 Height: 4.0 m
Data from the previous 72 hours. | See also: Recent months at Hobart Airport
Date/Time
EDT
Temp
°C
App
Temp
°C
Dew
Point
Rel
Hum
%
Delta-T
°C
Wind Press
QNH
hPa
Press
MSL
hPa
Rain
since 9 am
mm
Dir
 
Spd
km/h
Gust
km/h
Spd
kts
Gust
kts
07/10:30am 16.8 13.3 7.2 53 4.8 NNW 15 22 8 12 1001.5 1001.4 0.0
07/10:00am 15.8 12.4 5.9 51 4.8 NNW 13 17 7 9 1002.1 1002.0 0.0
07/09:30am 14.8 11.6 5.3 53 4.5 NNW 11 17 6 9 1002.2 1002.1 0.0
07/09:00am 12.7 9.8 4.9 59 3.6 WSW 9 11 5 6 1002.5 1002.4 0.0
07/08:30am 12.2 9.6 4.3 58 3.6 NW 7 7 4 4 1002.5 1002.4 0.0
07/08:00am 11.8 8.8 4.3 60 3.4 WNW 9 9 5 5 1002.4 1002.3 0.0
07/07:30am 11.6 8.9 3.8 59 3.5 WNW 7 11 4 6 1002.5 1002.4 0.0
07/07:00am 11.0 7.9 3.8 61 3.2 W 9 11 5 6 1002.7 1002.6 0.0
07/06:30am 10.7 7.7 4.0 63 3.0 WNW 9 11 5 6 1002.8 1002.7 0.0
07/05:30am 10.8 7.8 4.1 63 3.0 NW 9 13 5 7 1003.2 1003.1 0.0
07/05:00am 10.6 7.2 3.9 63 3.0 NNW 11 17 6 9 1003.5 1003.4 0.0
07/04:30am 10.1 5.6 4.0 66 2.7 NNW 17 20 9 11 1004.0 1003.9 0.0
07/03:30am 9.7 5.8 3.3 64 2.8 NNW 13 17 7 9 1004.9 1004.8 0.0
07/03:00am 9.8 5.5 3.1 63 2.9 NNW 15 20 8 11 1005.2 1005.1 0.0
07/02:30am 8.4 5.1 4.6 77 1.7 NNW 11 17 6 9 1005.6 1005.5 0.0
07/02:00am 8.0 4.7 4.6 79 1.5 NNW 11 15 6 8 1006.2 1006.1 0.0
07/01:30am 7.6 3.9 4.6 81 1.3 NNW 13 19 7 10 1006.6 1006.5 0.0
07/01:00am 8.3 4.6 4.4 76 1.7 NW 13 17 7 9 1006.9 1006.8 0.0
07/12:30am 8.8 5.8 4.3 73 2.0 N 9 11 5 6 1007.1 1007.0 0.0
 
Date/Time
EDT
Temp
°C
App
Temp
°C
Dew
Point
Rel
Hum
%
Delta-T
°C
Wind Press
QNH
hPa
Press
MSL
hPa
Rain
since 9 am
mm
Dir
 
Spd
km/h
Gust
km/h
Spd
kts
Gust
kts
06/11:30pm 9.3 6.8 4.8 73 2.0 NNW 7 9 4 5 1007.7 1007.6 0.0
06/10:30pm 8.8 7.5 4.3 73 2.0 CALM 0 0 0 0 1008.1 1008.0 0.0
06/10:00pm 10.2 9.0 4.4 67 2.6 CALM 0 0 0 0 1008.2 1008.1 0.0
06/09:30pm 10.6 8.2 4.4 65 2.8 S 6 11 3 6 1008.0 1007.9 0.0
06/09:00pm 11.4 8.1 4.3 61 3.2 S 11 15 6 8 1007.7 1007.6 0.0
06/08:30pm 11.6 7.8 3.8 59 3.5 S 13 17 7 9 1007.1 1007.0 0.0
06/07:30pm 12.7 7.5 2.4 49 4.5 S 19 28 10 15 1006.3 1006.2 0.0
06/07:00pm 13.6 7.4 1.9 45 5.1 S 24 32 13 17 1005.9 1005.8 0.0
06/06:30pm 14.0 8.7 1.9 44 5.3 S 19 24 10 13 1005.6 1005.5 0.0
06/05:30pm 14.5 7.4 1.4 41 5.7 S 28 33 15 18 1005.3 1005.2 0.0
06/05:00pm 14.7 7.3 1.7 41 5.7 S 30 39 16 21 1005.2 1005.1 0.0
06/04:30pm 14.9 8.2 1.4 40 5.9 SSW 26 37 14 20 1004.9 1004.8 0.0
06/04:00pm 15.1 7.8 0.1 36 6.4 SSW 28 37 15 20 1004.9 1004.8 0.0
06/03:30pm 14.8 6.7 -0.1 36 6.3 SSW 32 41 17 22 1004.7 1004.6 0.0
06/03:00pm 15.2 7.2 0.6 37 6.3 SSW 32 44 17 24 1004.7 1004.6 0.0
06/02:30pm 14.7 5.9 1.1 39 5.9 SSW 37 54 20 29 1004.4 1004.3 0.0
06/02:14pm 15.4 7.8 0.6 36 6.4 SSW 30 48 16 26 1004.5 1004.4 0.0
06/02:00pm 14.9 7.9 -0.6 34 6.5 SW 26 41 14 22 1004.4 1004.3 0.0
06/01:30pm 14.6 6.1 0.6 38 6.0 SW 35 57 19 31 1004.2 1004.1 0.0
06/01:00pm 13.9 5.0 0.5 40 5.7 SSW 37 57 20 31 1003.7 1003.6 0.0
06/12:56pm 13.4 4.1 0.4 41 5.5 SSW 39 57 21 31 1003.7 1003.6 0.0
06/12:30pm 13.8 4.7 1.6 43 5.3 SSW 39 56 21 30 1003.6 1003.5 0.0
06/12:20pm 13.6 6.0 2.8 48 4.8 SSW 32 50 17 27 1003.5 1003.4 0.0
06/12:00pm 13.5 6.4 3.3 50 4.6 SSW 30 43 16 23 1003.3 1003.2 0.0
06/11:30am 13.3 6.1 5.7 60 3.6 SW 33 43 18 23 1003.0 1002.9 0.0
06/11:12am 13.5 6.4 3.8 52 4.4 WSW 30 48 16 26 1003.0 1002.9 0.0
06/11:00am 11.7 5.0 3.6 57 3.6 SW 28 48 15 26 1002.9 1002.8 0.0
06/10:30am 12.0 4.7 2.4 52 4.2 SW 30 39 16 21 1002.5 1002.4 0.0
06/10:09am 12.1 5.1 1.9 49 4.4 WSW 28 56 15 30 1001.8 1001.7 0.0
06/10:00am 12.2 5.6 2.1 50 4.4 WSW 26 48 14 26 1001.7 1001.6 0.0
06/09:53am 12.1 4.6 1.3 47 4.6 WSW 30 48 16 26 1001.5 1001.4 0.0
06/09:30am 12.4 4.5 1.1 46 4.8 WSW 32 46 17 25 1000.9 1000.8 0.0
06/09:00am 12.2 2.5 0.8 45 4.8 WSW 41 59 22 32 999.9 999.8 0.0
06/08:40am 12.4 3.2 1.4 47 4.7 WSW 39 57 21 31 999.6 999.5 0.0
06/08:30am 12.3 3.5 1.6 48 4.6 WSW 37 52 20 28 999.5 999.4 0.0
06/08:00am 11.5 3.9 3.7 58 3.5 W 33 43 18 23 998.9 998.8 0.0
06/07:38am 11.7 5.0 3.9 59 3.5 WSW 28 46 15 25 998.6 998.5 0.0
06/07:30am 11.5 4.0 4.5 62 3.2 WSW 33 43 18 23 998.3 998.2 0.0
06/07:00am 11.6 5.2 5.4 65 2.9 WSW 28 41 15 22 997.6 997.5 0.0
06/06:30am 12.8 7.5 4.8 58 3.7 W 22 32 12 17 996.4 996.4 0.0
06/06:00am 12.8 6.9 5.9 63 3.3 W 26 39 14 21 995.8 995.8 0.0
06/05:30am 13.7 8.6 6.2 60 3.6 SW 22 41 12 22 995.0 995.0 0.0
06/05:00am 14.3 9.7 6.7 60 3.7 SW 20 37 11 20 994.1 994.1 0.0
06/04:30am 14.5 8.0 8.2 66 3.2 SW 32 43 17 23 993.4 993.4 0.0
06/04:04am 15.3 9.0 7.3 59 4.0 WSW 30 54 16 29 992.6 992.6 0.0
06/04:00am 15.7 10.8 7.1 56 4.3 WSW 22 39 12 21 992.6 992.6 0.0
06/03:30am 16.0 9.4 6.2 52 4.8 WNW 30 41 16 22 991.7 991.7 0.0
06/03:05am 16.3 8.3 5.9 50 5.0 WNW 37 57 20 31 991.2 991.2 0.0
06/03:00am 15.7 7.5 6.6 54 4.5 WNW 39 56 21 30 991.4 991.4 0.0
06/02:37am 15.5 7.3 6.6 55 4.3 WNW 39 57 21 31 991.5 991.5 0.0
06/02:30am 15.6 7.0 6.5 54 4.4 WNW 41 57 22 31 991.6 991.6 0.0
06/02:00am 15.2 5.5 5.9 54 4.5 WNW 46 63 25 34 991.3 991.3 0.0
06/01:45am 15.1 5.5 6.1 55 4.3 WNW 46 65 25 35 991.5 991.5 0.0
06/01:30am 15.1 5.0 5.8 53 4.5 W 48 61 26 33 991.6 991.6 0.0
06/01:00am 14.9 3.6 5.3 52 4.6 WNW 54 76 29 41 992.0 992.0 0.0
06/12:42am 14.9 3.8 4.7 50 4.8 WNW 52 74 28 40 991.8 991.8 0.0
06/12:30am 14.6 3.6 4.9 52 4.5 WNW 52 67 28 36 992.1 992.1 0.0
06/12:00am 14.6 3.1 4.6 51 4.7 WNW 54 87 29 47 992.6 992.6 0.0
 
Date/Time
EDT
Temp
°C
App
Temp
°C
Dew
Point
Rel
Hum
%
Delta-T
°C
Wind Press
QNH
hPa
Press
MSL
hPa
Rain
since 9 am
mm
Dir
 
Spd
km/h
Gust
km/h
Spd
kts
Gust
kts
05/11:30pm 14.3 4.9 4.5 51 4.5 WNW 43 70 23 38 993.6 993.6 0.0
05/11:00pm 14.1 5.0 4.2 51 4.6 WNW 41 69 22 37 994.8 994.8 0.0
05/10:38pm 13.7 7.0 3.6 50 4.6 WNW 28 54 15 29 995.5 995.5 0.0
05/10:30pm 13.5 7.2 3.6 51 4.5 WNW 26 39 14 21 995.8 995.8 0.0
05/10:21pm 13.4 6.3 3.5 51 4.4 WNW 30 48 16 26 996.0 996.0 0.0
05/10:00pm 13.4 6.2 3.2 50 4.6 WNW 30 41 16 22 997.1 997.1 0.0
05/09:30pm 12.9 6.1 3.1 51 4.3 WNW 28 46 15 25 997.7 997.6 0.0
05/09:00pm 12.8 5.9 2.6 50 4.5 WNW 28 48 15 26 998.4 998.3 0.0
05/08:30pm 12.7 5.0 2.2 49 4.6 WNW 32 50 17 27 999.0 998.9 0.0
05/08:10pm 12.5 5.6 2.5 50 4.4 WNW 28 46 15 25 999.5 999.4 0.0
05/08:00pm 12.5 5.2 2.2 49 4.5 NW 30 41 16 22 999.6 999.5 0.0
05/07:30pm 12.7 4.4 1.9 47 4.7 WNW 35 50 19 27 1000.1 1000.0 0.0
05/07:19pm 12.8 4.8 1.4 46 4.9 WNW 33 52 18 28 1000.4 1000.3 0.0
05/07:00pm 12.9 3.6 0.9 44 5.1 NW 39 52 21 28 1000.6 1000.5 0.0
05/06:42pm 13.1 3.8 0.9 43 5.2 WNW 39 57 21 31 1000.8 1000.7 0.0
05/06:30pm 13.2 5.0 0.4 41 5.4 NW 33 48 18 26 1001.1 1001.0 0.0
05/06:00pm 13.3 5.1 -0.8 38 5.8 W 32 54 17 29 1001.7 1001.6 0.0
05/05:30pm 14.1 4.9 -1.3 34 6.3 W 37 65 20 35 1002.1 1002.0 0.0
05/05:01pm 14.2 5.4 -1.5 34 6.4 WNW 35 54 19 29 1002.2 1002.1 0.0
05/05:00pm 14.1 4.9 -1.6 34 6.4 WNW 37 54 20 29 1002.2 1002.1 0.0
05/04:41pm 15.0 5.8 -1.5 32 6.7 WNW 37 56 20 30 1002.3 1002.2 0.0
05/04:30pm 15.2 4.9 -0.8 33 6.7 WNW 43 56 23 30 1002.7 1002.6 0.0
05/04:00pm 14.9 6.4 0.8 38 6.1 W 35 56 19 30 1003.5 1003.4 0.0
05/03:37pm 15.4 6.2 1.2 38 6.2 WNW 39 57 21 31 1004.0 1003.9 0.0
05/03:30pm 15.1 5.2 1.4 39 6.0 WNW 43 57 23 31 1004.1 1004.0 0.0
05/03:00pm 15.7 5.8 -0.7 32 6.9 WNW 41 56 22 30 1004.4 1004.3 0.0
05/02:36pm 16.1 7.3 -1.1 31 7.2 W 35 54 19 29 1005.0 1004.9 0.0
05/02:30pm 16.4 6.8 -1.3 30 7.4 W 39 54 21 29 1005.0 1004.9 0.0
05/02:00pm 16.6 7.8 -1.3 29 7.5 W 35 52 19 28 1005.3 1005.2 0.0
05/01:58pm 16.2 7.8 -1.3 30 7.3 W 33 52 18 28 1005.3 1005.2 0.0
05/01:30pm 14.7 6.3 1.4 40 5.8 WSW 35 46 19 25 1005.8 1005.7 0.0
05/01:00pm 15.3 7.0 0.0 35 6.5 SW 33 48 18 26 1006.2 1006.1 0.0
05/12:30pm 14.5 6.2 -0.6 35 6.3 SW 33 44 18 24 1006.2 1006.1 0.0
05/12:05pm 14.3 6.1 -1.3 34 6.4 W 32 52 17 28 1006.4 1006.3 0.0
05/12:00pm 13.7 5.5 -1.3 35 6.1 W 32 48 17 26 1006.4 1006.3 0.0
05/11:30am 14.2 5.0 -1.5 34 6.4 WSW 37 56 20 30 1006.4 1006.3 0.0
05/11:00am 12.7 4.3 -2.6 34 6.0 WSW 32 50 17 27 1006.4 1006.3 0.0
05/10:30am 11.3 2.6 -0.2 45 4.7 WSW 35 54 19 29 1006.4 1006.3 0.0
05/10:10am 11.9 3.2 -0.7 41 5.1 WSW 35 57 19 31 1006.1 1006.0 0.0
05/10:00am 11.8 3.1 -0.8 41 5.1 WSW 35 48 19 26 1005.9 1005.8 0.0
05/09:30am 11.0 3.5 0.9 49 4.2 WSW 30 48 16 26 1005.7 1005.6 0.0
05/09:02am 9.9 1.3 0.3 51 3.9 WSW 35 54 19 29 1005.4 1005.3 0.0
05/09:00am 10.0 1.5 0.8 53 3.8 WSW 35 52 19 28 1005.4 1005.3 0.6
05/08:58am 10.1 1.9 0.6 51 3.9 WSW 33 52 18 28 1005.3 1005.2 0.6
05/08:30am 9.5 1.6 1.0 55 3.5 WSW 32 44 17 24 1004.7 1004.6 0.6
05/08:05am 9.5 1.8 -0.3 50 3.9 W 30 48 16 26 1004.0 1003.9 0.6
05/08:00am 9.7 1.7 0.7 53 3.7 W 32 48 17 26 1003.9 1003.8 0.6
05/07:57am 9.8 2.7 1.1 54 3.6 W 28 48 15 26 1003.9 1003.8 0.6
05/07:30am 9.3 4.0 1.6 58 3.2 WSW 19 26 10 14 1003.1 1003.0 0.6
05/07:13am 8.8 1.8 2.1 63 2.8 W 28 48 15 26 1002.8 1002.7 0.6
05/07:00am 8.6 1.6 1.9 63 2.8 W 28 39 15 21 1002.3 1002.2 0.6
05/06:30am 8.7 1.4 2.6 65 2.6 WSW 30 48 16 26 1001.5 1001.4 0.6
05/06:24am 8.9 2.0 2.8 65 2.6 WSW 28 48 15 26 1001.4 1001.3 0.6
05/06:00am 9.0 2.0 2.1 62 2.9 SW 28 39 15 21 1000.8 1000.7 0.6
05/05:30am 8.6 1.0 3.0 68 2.4 WSW 32 50 17 27 999.7 999.6 0.6
05/05:21am 8.8 1.2 3.0 67 2.5 SW 32 54 17 29 999.7 999.6 0.4
05/05:16am 9.3 3.3 3.1 65 2.7 SW 24 54 13 29 999.7 999.6 0.4
05/05:00am 9.4 4.3 2.9 64 2.8 SW 19 30 10 16 999.2 999.1 0.4
05/04:30am 9.3 2.3 3.9 69 2.4 WSW 30 43 16 23 998.7 998.6 0.4
05/04:00am 9.6 2.7 4.5 70 2.3 SW 30 41 16 22 998.4 998.3 0.4
05/03:52am 10.3 3.7 4.0 65 2.8 WSW 28 52 15 28 998.5 998.4 0.0
05/03:30am 11.6 7.1 2.4 53 4.0 SW 15 22 8 12 997.8 997.7 0.0
05/03:00am 11.8 5.2 2.1 51 4.2 WSW 26 39 14 21 996.9 996.9 0.0
05/02:30am 12.1 6.3 2.2 50 4.3 W 22 33 12 18 996.9 996.9 0.0
05/02:00am 12.6 6.8 2.4 50 4.5 WSW 22 32 12 17 997.1 997.1 0.0
05/01:30am 12.7 7.8 3.9 55 4.0 WSW 19 28 10 15 997.0 997.0 0.0
05/01:00am 13.3 5.3 3.9 53 4.3 W 35 44 19 24 996.5 996.5 0.0
05/12:30am 13.6 7.3 5.6 58 3.8 WNW 28 37 15 20 996.7 996.7 0.0
05/12:00am 14.2 9.4 5.6 56 4.1 WSW 20 35 11 19 996.4 996.4 0.0
 
Date/Time
EDT
Temp
°C
App
Temp
°C
Dew
Point
Rel
Hum
%
Delta-T
°C
Wind Press
QNH
hPa
Press
MSL
hPa
Rain
since 9 am
mm
Dir
 
Spd
km/h
Gust
km/h
Spd
kts
Gust
kts
04/11:30pm 14.8 10.1 5.9 55 4.3 NW 20 28 11 15 996.1 996.1 0.0
04/11:00pm 15.1 8.0 5.5 52 4.6 WNW 32 50 17 27 996.3 996.3 0.0
04/10:30pm 15.8 8.6 4.9 48 5.1 NW 32 52 17 28 996.3 996.3 0.0
04/10:00pm 15.8 10.6 5.4 50 5.0 NNW 22 32 12 17 997.0 997.0 0.0
04/09:30pm 16.2 12.3 5.2 48 5.2 NNW 15 22 8 12 997.4 997.3 0.0
04/09:00pm 15.2 14.1 8.5 64 3.4 SSW 4 9 2 5 997.6 997.5 0.0
04/08:38pm 15.8 10.0 7.9 59 4.0 WNW 28 41 15 22 997.7 997.6 0.0
04/08:30pm 16.7 9.0 6.9 52 4.9 NW 37 61 20 33 997.5 997.4 0.0
04/08:03pm 16.9 11.1 7.9 55 4.6 NNW 28 46 15 25 997.4 997.3 0.0
04/08:00pm 17.4 12.2 7.3 51 5.1 NNW 24 37 13 20 997.6 997.5 0.0
04/07:37pm 17.6 10.7 6.6 48 5.4 NNW 32 59 17 32 997.5 997.4 0.0
04/07:30pm 17.7 12.8 6.7 48 5.5 NNW 22 35 12 19 997.5 997.4 0.0
04/07:00pm 18.3 13.2 6.0 44 6.1 WNW 22 33 12 18 998.1 998.0 0.0
04/06:30pm 19.3 12.0 5.3 39 6.8 NW 33 41 18 22 998.4 998.3 0.0
04/06:09pm 19.8 11.2 4.9 37 7.2 NW 39 57 21 31 998.6 998.5 0.0
04/06:00pm 19.9 10.5 5.3 38 7.2 NW 44 61 24 33 998.6 998.5 0.0
04/05:37pm 20.4 12.5 4.4 35 7.7 NNW 35 54 19 29 998.6 998.5 0.0
04/05:30pm 20.7 13.0 5.2 36 7.6 NNW 35 50 19 27 998.4 998.3 0.0
04/05:00pm 21.6 15.7 5.7 35 8.0 W 26 37 14 20 998.8 998.7 0.0
04/04:50pm 21.4 15.1 5.7 36 7.8 WNW 28 46 15 25 999.0 998.9 0.0
04/04:30pm 21.1 13.9 4.9 34 8.0 W 32 41 17 22 999.0 998.9 0.0
04/04:00pm 21.7 15.1 4.1 31 8.6 WNW 28 35 15 19 999.4 999.3 0.0
04/03:41pm 21.9 14.8 5.6 34 8.2 NW 32 50 17 27 999.8 999.7 0.0
04/03:30pm 22.4 16.0 5.3 33 8.5 NW 28 39 15 21 1000.0 999.9 0.0
04/03:00pm 21.6 14.4 5.7 35 8.0 WNW 33 46 18 25 1000.1 1000.0 0.0
04/02:43pm 22.3 15.9 5.4 33 8.4 WNW 28 52 15 28 1000.2 1000.1 0.0
04/02:30pm 22.4 16.4 6.9 36 8.0 W 28 37 15 20 1000.4 1000.3 0.0
04/02:13pm 21.2 15.3 7.3 40 7.1 WNW 28 56 15 30 1000.4 1000.3 0.0
04/02:00pm 20.4 14.4 6.9 41 6.9 W 28 41 15 22 1000.4 1000.3 0.0
04/01:30pm 20.9 16.0 6.8 40 7.2 WNW 22 37 12 20 1000.6 1000.5 0.0
04/01:06pm 20.7 13.8 6.5 39 7.2 WNW 32 50 17 27 1001.0 1000.9 0.0
04/01:00pm 22.3 16.0 7.6 38 7.7 NW 30 37 16 20 1001.1 1001.0 0.0
04/12:30pm 21.3 13.5 6.6 38 7.5 WNW 37 50 20 27 1001.6 1001.5 0.0
04/12:00pm 20.6 13.6 5.8 38 7.4 NW 32 46 17 25 1002.1 1002.0 0.0
04/11:47am 21.2 13.5 5.3 35 7.9 NW 35 56 19 30 1002.0 1001.9 0.0
04/11:30am 21.3 14.4 6.3 37 7.6 NW 32 41 17 22 1002.2 1002.1 0.0
04/11:12am 20.6 13.8 5.2 36 7.6 WNW 30 48 16 26 1002.6 1002.5 0.0

Other Formats:

Comma delimited format used in spreadsheet applications
http://www.bom.gov.au/fwo/IDT60801/IDT60801.94975.axf

JavaScript Object Notation format (JSON) in row-major order
http://www.bom.gov.au/fwo/IDT60801/IDT60801.94975.json